Time;durP1;ratioP1;P1;durP2;ratioP2;P2;SDS_P1;SDS_P2;PMS_P1;PMS_P2;Temp;Humidity;BMP_temperature;BMP_pressure;BME280_temperature;BME280_humidity;BME280_pressure;Samples;Min_cycle;Max_cycle;Signal;HPM_P1;HPM_P2
2022/01/16 09:04:59;;;;;;;;;;;;;;;1.77;86.99;98049.41;4250309;27;10349;-79
2022/01/16 09:07:00;;;;;;;;;;;;;;;1.80;87.12;98038.75;4250726;27;5661;-79
2022/01/16 09:09:02;;;;;;;;;;;;;;;1.63;87.11;98047.75;4250902;27;5653;-79
2022/01/16 09:11:05;;;;;;;;;;;;;;;1.78;86.82;98041.47;4244226;27;6238;-79
2022/01/16 09:13:11;;;;;;;;;;;;;;;1.64;87.14;98052.84;4226422;27;5768;-79
2022/01/16 09:15:15;;;;;;;;;;;;;;;1.84;87.13;98061.91;4249420;27;5599;-79
2022/01/16 09:17:16;;;;;;;;;;;;;;;1.91;86.95;98059.69;4239870;27;5637;-79
2022/01/16 09:19:18;;;;;;;;;;;;;;;1.97;86.35;98061.88;4244938;27;5692;-78
2022/01/16 09:21:20;;;;;;;;;;;;;;;1.96;86.22;98060.22;4221259;28;5671;-79
2022/01/16 09:23:23;;;;;;;;;;;;;;;1.98;86.37;98058.31;4228353;27;5650;-79
2022/01/16 09:25:26;;;;;;;;;;;;;;;1.93;86.24;98063.03;4250177;27;6462;-79
2022/01/16 09:27:29;;;;;;;;;;;;;;;2.01;86.00;98068.53;4242904;27;5682;-79
2022/01/16 09:29:30;;;;;;;;;;;;;;;1.86;86.62;98080.88;4232150;28;5670;-79
2022/01/16 09:31:32;;;;;;;;;;;;;;;1.94;87.05;98082.97;4230884;28;5798;-79
2022/01/16 09:33:34;;;;;;;;;;;;;;;1.98;86.58;98084.41;4226068;28;5800;-79
2022/01/16 09:35:38;;;;;;;;;;;;;;;1.85;87.40;98083.59;4227440;28;6644;-79
2022/01/16 09:37:41;;;;;;;;;;;;;;;1.97;86.75;98080.13;4227392;28;5777;-79
2022/01/16 09:39:42;;;;;;;;;;;;;;;2.03;86.76;98077.06;4228775;27;5859;-79
2022/01/16 09:41:46;;;;;;;;;;;;;;;1.60;87.62;98074.88;4230168;27;5885;-79
2022/01/16 09:43:48;;;;;;;;;;;;;;;1.84;87.24;98079.31;4227290;28;5779;-79
2022/01/16 09:45:52;;;;;;;;;;;;;;;1.85;87.26;98084.44;4227378;28;6044;-79
2022/01/16 09:47:53;;;;;;;;;;;;;;;1.94;86.93;98094.22;4228489;28;5781;-78
2022/01/16 09:49:55;;;;;;;;;;;;;;;1.80;87.18;98098.72;4226905;28;5790;-78
2022/01/16 09:51:57;;;;;;;;;;;;;;;1.84;87.42;98085.38;4227416;28;5800;-77
2022/01/16 09:54:00;;;;;;;;;;;;;;;1.93;87.25;98103.00;4226750;28;5901;-77
2022/01/16 09:56:02;;;;;;;;;;;;;;;1.95;86.96;98100.28;4227066;28;5789;-78
2022/01/16 09:58:04;;;;;;;;;;;;;;;1.97;86.98;98104.44;4226669;28;5970;-78
2022/01/16 10:00:09;;;;;;;;;;;;;;;2.02;86.63;98094.50;4228190;28;5864;-78
2022/01/16 10:02:13;;;;;;;;;;;;;;;2.04;86.38;98094.41;4211062;28;5692;-78
2022/01/16 10:04:31;;;;;;;;;;;;;;;2.13;86.36;98082.47;4228935;28;5646;-78
2022/01/16 10:06:34;;;;;;;;;;;;;;;2.19;86.11;98084.66;4218251;28;5788;-78
2022/01/16 10:08:39;;;;;;;;;;;;;;;2.17;85.48;98079.56;4216768;28;5762;-78
2022/01/16 10:10:42;;;;;;;;;;;;;;;2.26;85.90;98083.25;4217098;28;5877;-78
2022/01/16 10:12:51;;;;;;;;;;;;;;;2.25;86.07;98087.66;4213562;28;5766;-77
2022/01/16 10:14:52;;;;;;;;;;;;;;;2.20;85.93;98084.53;4216889;28;5872;-77
2022/01/16 10:17:08;;;;;;;;;;;;;;;2.10;86.29;98091.34;4213503;28;5782;-77
2022/01/16 10:19:26;;;;;;;;;;;;;;;2.14;86.49;98078.91;4215027;28;5789;-76
2022/01/16 10:21:37;;;;;;;;;;;;;;;2.11;86.65;98077.38;4198691;28;5925;-77
2022/01/16 10:23:44;;;;;;;;;;;;;;;2.13;86.72;98085.09;4213123;28;5691;-76
2022/01/16 10:25:47;;;;;;;;;;;;;;;2.14;86.82;98082.34;4212637;28;5774;-76
2022/01/16 10:27:49;;;;;;;;;;;;;;;2.14;86.70;98079.75;4213479;28;5774;-76
2022/01/16 10:29:53;;;;;;;;;;;;;;;2.14;86.46;98078.91;4214170;28;5806;-76
2022/01/16 10:32:11;;;;;;;;;;;;;;;2.22;86.41;98087.88;4215165;28;5833;-77
2022/01/16 10:34:25;;;;;;;;;;;;;;;2.22;86.40;98077.44;4218253;28;5744;-77
2022/01/16 10:36:38;;;;;;;;;;;;;;;2.21;86.49;98081.00;4213823;28;5874;-76
2022/01/16 10:38:40;;;;;;;;;;;;;;;2.08;86.61;98089.81;4209130;28;5828;-76
2022/01/16 10:40:44;;;;;;;;;;;;;;;2.18;86.66;98085.59;4212505;28;5782;-77
2022/01/16 10:42:51;;;;;;;;;;;;;;;2.21;86.96;98086.22;4214361;28;5799;-76
2022/01/16 10:45:05;;;;;;;;;;;;;;;2.20;86.80;98089.75;4210158;28;5902;-77
2022/01/16 10:47:34;;;;;;;;;;;;;;;2.13;87.24;98091.13;4202910;28;5784;-77
2022/01/16 10:49:38;;;;;;;;;;;;;;;2.17;87.59;98090.00;4201852;28;5762;-76
2022/01/16 10:51:40;;;;;;;;;;;;;;;2.27;87.22;98084.94;4207007;28;5770;-76
2022/01/16 10:53:42;;;;;;;;;;;;;;;2.25;87.21;98087.66;4193065;28;6483;-76
2022/01/16 10:55:51;;;;;;;;;;;;;;;2.28;87.36;98092.66;4209385;28;5802;-77
2022/01/16 10:58:01;;;;;;;;;;;;;;;2.07;88.17;98094.19;4206960;28;5889;-76
2022/01/16 11:00:14;;;;;;;;;;;;;;;2.17;87.83;98094.38;4210918;28;5778;-76
2022/01/16 11:02:15;;;;;;;;;;;;;;;2.29;87.51;98090.88;4202848;28;5803;-76
2022/01/16 11:04:26;;;;;;;;;;;;;;;2.26;87.64;98089.31;4212047;28;5955;-77
2022/01/16 11:06:28;;;;;;;;;;;;;;;2.34;87.07;98092.22;4208807;28;5846;-76
2022/01/16 11:08:30;;;;;;;;;;;;;;;2.30;86.94;98100.38;4206892;28;5754;-76
2022/01/16 11:10:33;;;;;;;;;;;;;;;2.21;87.13;98088.81;4204090;28;5770;-77
2022/01/16 11:12:36;;;;;;;;;;;;;;;2.14;87.21;98090.19;4202561;28;5839;-77
2022/01/16 11:14:37;;;;;;;;;;;;;;;2.16;87.61;98088.31;4211212;28;5781;-76
2022/01/16 11:16:39;;;;;;;;;;;;;;;2.24;87.46;98080.75;4205150;28;5901;-77
2022/01/16 11:18:48;;;;;;;;;;;;;;;1.73;89.12;98086.13;4202228;28;5930;-77
2022/01/16 11:21:15;;;;;;;;;;;;;;;1.90;89.14;98092.75;4199221;28;5790;-70
2022/01/16 11:25:26;;;;;;;;;;;;;;;2.05;88.30;98085.66;4207023;28;5766;-78
2022/01/16 11:27:29;;;;;;;;;;;;;;;2.15;88.06;98086.66;4207527;28;6568;-72
2022/01/16 11:29:31;;;;;;;;;;;;;;;1.95;88.85;98087.22;4207321;28;5791;-76
2022/01/16 11:31:33;;;;;;;;;;;;;;;2.08;88.65;98085.41;4207210;28;5770;-75
2022/01/16 11:33:35;;;;;;;;;;;;;;;2.21;88.21;98087.97;4203659;28;5857;-75
2022/01/16 11:35:47;;;;;;;;;;;;;;;2.18;88.00;98089.03;4215542;28;5893;-75
2022/01/16 11:37:50;;;;;;;;;;;;;;;2.18;88.17;98083.00;4213390;28;5769;-73
2022/01/16 11:40:29;;;;;;;;;;;;;;;2.23;88.35;98083.47;4204926;28;5832;-74
2022/01/16 11:42:36;;;;;;;;;;;;;;;2.22;88.22;98084.44;4202862;28;5830;-75
2022/01/16 11:44:50;;;;;;;;;;;;;;;2.21;88.28;98075.78;4204159;28;5688;-77
2022/01/16 11:46:57;;;;;;;;;;;;;;;2.22;88.55;98076.59;4212208;28;5737;-76
2022/01/16 11:48:59;;;;;;;;;;;;;;;2.17;88.53;98079.56;4207775;28;6354;-77
2022/01/16 11:51:04;;;;;;;;;;;;;;;2.18;88.42;98075.16;4213171;28;6588;-74
2022/01/16 11:53:05;;;;;;;;;;;;;;;2.27;88.18;98077.13;4210700;28;5842;-77
2022/01/16 11:55:09;;;;;;;;;;;;;;;2.24;88.03;98082.53;4215774;28;5787;-72
2022/01/16 11:57:24;;;;;;;;;;;;;;;2.24;87.96;98087.75;4207046;28;6445;-73
2022/01/16 11:59:35;;;;;;;;;;;;;;;2.28;87.67;98082.22;4170560;23;5198;-75
2022/01/16 12:02:08;;;;;;;;;;;;;;;2.13;88.31;98072.03;4160155;28;7804;-72
2022/01/16 12:04:41;;;;;;;;;;;;;;;2.27;87.65;98080.56;4179023;28;5733;-76
2022/01/16 12:06:42;;;;;;;;;;;;;;;2.28;87.80;98076.19;4152650;28;6417;-76
2022/01/16 12:08:46;;;;;;;;;;;;;;;2.28;87.37;98073.56;4159487;28;5844;-75
2022/01/16 12:10:55;;;;;;;;;;;;;;;2.25;87.82;98081.59;4172316;28;5772;-74
2022/01/16 12:12:56;;;;;;;;;;;;;;;2.26;87.62;98076.25;4166794;28;5829;-74
2022/01/16 12:15:08;;;;;;;;;;;;;;;2.22;87.91;98077.44;4164058;28;5845;-74
2022/01/16 12:17:38;;;;;;;;;;;;;;;2.38;88.00;98073.72;4175405;28;5929;-73
2022/01/16 12:19:46;;;;;;;;;;;;;;;2.42;87.93;98073.41;4199354;23;5832;-72
2022/01/16 12:21:54;;;;;;;;;;;;;;;2.32;87.71;98073.22;4176904;28;5909;-72
2022/01/16 12:23:56;;;;;;;;;;;;;;;2.32;87.93;98064.56;4195578;28;5750;-72
2022/01/16 12:25:58;;;;;;;;;;;;;;;2.42;87.74;98070.78;4185550;28;5142;-73
2022/01/16 12:28:13;;;;;;;;;;;;;;;2.47;87.55;98070.44;4190298;28;7747;-73
2022/01/16 12:30:50;;;;;;;;;;;;;;;2.20;88.11;98061.06;4192932;28;5785;-74
2022/01/16 12:33:08;;;;;;;;;;;;;;;2.28;88.58;98063.13;4181701;28;5841;-72
2022/01/16 12:35:10;;;;;;;;;;;;;;;2.29;88.16;98068.25;4187455;28;5809;-73
2022/01/16 12:37:41;;;;;;;;;;;;;;;2.39;88.13;98070.19;4192880;28;5904;-70
2022/01/16 12:39:43;;;;;;;;;;;;;;;2.37;88.00;98079.88;4187788;28;5763;-69
2022/01/16 12:41:46;;;;;;;;;;;;;;;2.36;88.07;98080.81;4187699;28;5839;-70
2022/01/16 12:43:55;;;;;;;;;;;;;;;2.37;88.25;98080.72;4195687;28;5809;-70
2022/01/16 12:45:59;;;;;;;;;;;;;;;2.33;87.98;98077.50;4190550;28;5807;-70
2022/01/16 12:48:00;;;;;;;;;;;;;;;2.27;88.29;98075.34;4194739;28;6426;-76
2022/01/16 12:50:13;;;;;;;;;;;;;;;2.32;88.12;98075.84;4192055;28;5866;-71
2022/01/16 12:52:17;;;;;;;;;;;;;;;2.34;87.75;98076.56;4190305;28;5884;-70
2022/01/16 12:54:22;;;;;;;;;;;;;;;2.33;87.64;98072.28;4184459;28;5813;-71
2022/01/16 12:56:24;;;;;;;;;;;;;;;2.39;87.29;98067.59;4192041;28;5812;-70
2022/01/16 12:58:25;;;;;;;;;;;;;;;2.32;87.54;98064.56;4197213;28;5835;-73
2022/01/16 13:00:29;;;;;;;;;;;;;;;2.26;87.92;98057.16;4176376;28;5761;-72
2022/01/16 13:02:31;;;;;;;;;;;;;;;2.38;87.52;98066.75;4188141;28;5766;-73
2022/01/16 13:04:34;;;;;;;;;;;;;;;2.42;87.33;98067.34;4188654;28;5780;-69
2022/01/16 13:07:02;;;;;;;;;;;;;;;2.45;87.48;98069.72;4191284;28;5783;-75
2022/01/16 13:09:06;;;;;;;;;;;;;;;2.45;87.47;98072.34;4193926;28;5789;-75
2022/01/16 13:11:15;;;;;;;;;;;;;;;2.43;87.08;98066.41;4193093;28;5737;-72
2022/01/16 13:13:18;;;;;;;;;;;;;;;2.50;86.78;98070.25;4191517;28;5789;-75
2022/01/16 13:15:23;;;;;;;;;;;;;;;2.51;86.79;98077.13;4204114;28;5812;-73
2022/01/16 13:17:24;;;;;;;;;;;;;;;2.48;87.03;98064.28;4200273;28;5808;-68
2022/01/16 13:19:29;;;;;;;;;;;;;;;2.45;86.80;98065.34;4200584;28;5866;-76
2022/01/16 13:21:48;;;;;;;;;;;;;;;2.45;86.90;98062.72;4192235;28;5765;-72
2022/01/16 13:23:51;;;;;;;;;;;;;;;2.52;86.49;98055.28;4188002;28;5153;-76
2022/01/16 13:25:57;;;;;;;;;;;;;;;2.52;86.34;98052.69;4181925;28;8585;-77
2022/01/16 13:28:00;;;;;;;;;;;;;;;2.46;86.61;98047.91;4190153;28;5780;-72
2022/01/16 13:30:06;;;;;;;;;;;;;;;2.54;86.37;98035.97;4185429;28;5808;-75
2022/01/16 13:32:11;;;;;;;;;;;;;;;2.33;86.35;98040.97;4184879;28;5969;-80
2022/01/16 13:34:18;;;;;;;;;;;;;;;2.13;87.74;98035.50;4189086;28;5930;-76
2022/01/16 13:36:20;;;;;;;;;;;;;;;2.31;87.10;98044.63;4189835;28;5220;-76
2022/01/16 13:38:29;;;;;;;;;;;;;;;2.50;86.53;98044.13;4185971;28;7818;-74
2022/01/16 13:40:31;;;;;;;;;;;;;;;2.62;86.16;98053.69;4196221;28;5792;-75
2022/01/16 13:42:51;;;;;;;;;;;;;;;2.41;86.67;98045.63;4191278;28;5818;-74
2022/01/16 13:44:52;;;;;;;;;;;;;;;2.40;86.82;98040.53;4196682;28;5842;-69
2022/01/16 13:47:00;;;;;;;;;;;;;;;2.48;86.60;98038.19;4198457;28;5784;-70
2022/01/16 13:49:05;;;;;;;;;;;;;;;2.66;86.01;98033.38;4192859;28;5792;-71
2022/01/16 13:51:08;;;;;;;;;;;;;;;2.70;86.02;98038.25;4191460;28;5784;-70
2022/01/16 13:53:16;;;;;;;;;;;;;;;2.73;85.20;98034.63;4181174;28;5880;-70
2022/01/16 13:55:18;;;;;;;;;;;;;;;2.71;85.61;98045.16;4187782;28;5836;-72
2022/01/16 13:57:40;;;;;;;;;;;;;;;2.72;85.64;98036.38;4199744;28;5793;-73
2022/01/16 13:59:56;;;;;;;;;;;;;;;2.79;85.37;98028.91;4186961;28;5121;-73
2022/01/16 14:01:58;;;;;;;;;;;;;;;2.83;85.33;98036.44;4193430;28;7129;-72
2022/01/16 14:04:11;;;;;;;;;;;;;;;2.81;85.31;98033.06;4196599;28;5777;-72
2022/01/16 14:06:16;;;;;;;;;;;;;;;2.77;85.62;98028.19;4197228;28;5156;-73
2022/01/16 14:08:30;;;;;;;;;;;;;;;2.83;85.44;98028.59;4198460;28;5780;-75
2022/01/16 14:10:38;;;;;;;;;;;;;;;2.88;85.28;98026.44;4193882;28;5579;-76
2022/01/16 14:12:55;;;;;;;;;;;;;;;2.88;85.15;98025.63;4165509;28;6688;-74
2022/01/16 14:14:56;;;;;;;;;;;;;;;2.86;85.15;98037.97;4199116;28;5837;-74
2022/01/16 14:17:53;;;;;;;;;;;;;;;2.90;85.48;98042.84;4191465;28;5840;-72
2022/01/16 14:22:07;;;;;;;;;;;;;;;3.01;85.36;98030.75;4187875;28;5840;-72
2022/01/16 14:24:13;;;;;;;;;;;;;;;2.90;85.86;98032.38;4191603;28;5930;-72
2022/01/16 14:26:16;;;;;;;;;;;;;;;2.97;86.13;98037.16;4196756;28;5963;-70
2022/01/16 14:28:18;;;;;;;;;;;;;;;2.97;86.39;98035.38;4193328;28;5944;-71
2022/01/16 14:30:21;;;;;;;;;;;;;;;3.02;86.07;98033.25;4188152;28;5916;-72
2022/01/16 14:32:24;;;;;;;;;;;;;;;2.98;86.49;98031.00;4187524;28;5810;-72
2022/01/16 14:34:27;;;;;;;;;;;;;;;3.03;86.31;98034.91;4189932;28;6346;-73
2022/01/16 14:36:29;;;;;;;;;;;;;;;3.00;86.87;98022.09;4194117;28;6524;-72
2022/01/16 14:38:30;;;;;;;;;;;;;;;3.06;86.70;98026.00;4196838;28;6492;-72
2022/01/16 14:40:32;;;;;;;;;;;;;;;3.12;86.44;98028.16;4192228;28;6325;-71
2022/01/16 14:42:39;;;;;;;;;;;;;;;3.21;86.08;98022.25;4185740;28;5845;-73
2022/01/16 14:44:41;;;;;;;;;;;;;;;3.00;86.12;98022.09;4190570;28;5812;-72
2022/01/16 14:46:44;;;;;;;;;;;;;;;3.03;85.94;98023.63;4194224;28;5709;-71
2022/01/16 14:48:47;;;;;;;;;;;;;;;3.07;85.84;98022.47;4189365;28;5801;-68
2022/01/16 14:50:48;;;;;;;;;;;;;;;3.16;85.86;98033.03;4183344;28;5836;-68
2022/01/16 14:52:50;;;;;;;;;;;;;;;3.15;86.01;98026.13;4190880;28;5850;-68
2022/01/16 14:54:52;;;;;;;;;;;;;;;3.14;86.63;98031.47;4189530;28;5741;-69
2022/01/16 14:56:54;;;;;;;;;;;;;;;3.17;86.32;98033.84;4191433;28;5776;-70
2022/01/16 14:58:56;;;;;;;;;;;;;;;3.30;86.02;98033.78;4182243;28;5836;-69
2022/01/16 15:00:59;;;;;;;;;;;;;;;3.38;86.07;98027.00;4182664;28;7129;-70
2022/01/16 15:03:02;;;;;;;;;;;;;;;3.36;86.18;98034.13;4181330;28;6023;-70
2022/01/16 15:05:05;;;;;;;;;;;;;;;3.32;86.13;98037.94;4182507;28;5813;-70
2022/01/16 15:07:08;;;;;;;;;;;;;;;3.42;86.03;98036.28;4176205;28;5902;-69
2022/01/16 15:09:13;;;;;;;;;;;;;;;3.46;85.64;98037.69;4191498;28;5814;-69
2022/01/16 15:11:16;;;;;;;;;;;;;;;3.48;85.49;98048.03;4182348;28;6685;-69
2022/01/16 15:13:21;;;;;;;;;;;;;;;3.46;85.63;98039.47;4181118;28;5868;-69
2022/01/16 15:15:22;;;;;;;;;;;;;;;3.48;85.37;98043.63;4191507;28;5106;-69
2022/01/16 15:17:29;;;;;;;;;;;;;;;3.46;85.74;98050.78;4198724;28;5855;-69
2022/01/16 15:19:34;;;;;;;;;;;;;;;3.42;85.75;98049.34;4181951;28;5810;-69
2022/01/16 15:21:46;;;;;;;;;;;;;;;3.33;85.60;98052.66;4182219;28;5832;-67
2022/01/16 15:23:51;;;;;;;;;;;;;;;3.22;86.47;98044.81;4195729;28;5819;-69
2022/01/16 15:25:54;;;;;;;;;;;;;;;3.38;86.19;98045.28;4185837;28;5761;-69
2022/01/16 15:27:56;;;;;;;;;;;;;;;3.43;85.73;98044.97;4196712;28;5814;-69
2022/01/16 15:29:58;;;;;;;;;;;;;;;3.44;85.58;98047.44;4183725;28;5769;-69
2022/01/16 15:32:00;;;;;;;;;;;;;;;3.36;85.89;98049.81;4182134;28;5805;-69
2022/01/16 15:34:02;;;;;;;;;;;;;;;3.43;85.76;98040.56;4194141;28;5766;-69
2022/01/16 15:36:05;;;;;;;;;;;;;;;3.45;85.41;98051.72;4196977;28;5745;-69
2022/01/16 15:38:07;;;;;;;;;;;;;;;3.48;85.20;98050.66;4196868;28;5745;-69
2022/01/16 15:40:13;;;;;;;;;;;;;;;3.43;84.98;98050.19;4180228;28;5732;-69
2022/01/16 15:42:18;;;;;;;;;;;;;;;3.44;85.46;98057.91;4190635;28;5769;-69
2022/01/16 15:44:19;;;;;;;;;;;;;;;3.44;85.61;98054.47;4185687;28;5778;-69
2022/01/16 15:46:23;;;;;;;;;;;;;;;3.44;85.34;98062.31;4192979;28;5746;-70
2022/01/16 15:48:26;;;;;;;;;;;;;;;3.37;85.51;98063.72;4197092;28;5916;-69
2022/01/16 15:50:28;;;;;;;;;;;;;;;3.43;85.65;98074.53;4196820;28;5750;-70
2022/01/16 15:52:38;;;;;;;;;;;;;;;3.43;85.37;98071.94;4190754;28;5859;-70
2022/01/16 15:54:42;;;;;;;;;;;;;;;3.43;85.51;98071.09;4181480;28;5760;-70
2022/01/16 15:56:45;;;;;;;;;;;;;;;3.36;85.61;98075.94;4179996;28;5752;-70
2022/01/16 15:58:47;;;;;;;;;;;;;;;3.35;85.77;98081.28;4181277;28;5857;-68
2022/01/16 16:00:49;;;;;;;;;;;;;;;3.34;85.54;98082.25;4179756;28;5769;-68
2022/01/16 16:02:54;;;;;;;;;;;;;;;3.29;85.63;98087.84;4180842;28;5861;-69
2022/01/16 16:04:57;;;;;;;;;;;;;;;3.28;85.70;98086.16;4187186;28;5796;-68
2022/01/16 16:06:58;;;;;;;;;;;;;;;3.28;85.57;98098.38;4196584;28;5917;-68
2022/01/16 16:09:00;;;;;;;;;;;;;;;3.28;85.38;98104.44;4179596;28;5772;-68
2022/01/16 16:11:03;;;;;;;;;;;;;;;3.27;85.59;98105.38;4179641;28;5740;-69
2022/01/16 16:13:04;;;;;;;;;;;;;;;3.27;85.60;98099.34;4173714;28;5769;-69
2022/01/16 16:15:07;;;;;;;;;;;;;;;3.26;85.23;98098.50;4187185;28;5857;-69
2022/01/16 16:17:11;;;;;;;;;;;;;;;3.30;85.18;98099.13;4164340;28;5136;-69
2022/01/16 16:19:12;;;;;;;;;;;;;;;3.15;85.51;98099.31;4194690;28;7159;-69
2022/01/16 16:21:15;;;;;;;;;;;;;;;3.24;85.52;98091.72;4183735;28;5825;-69
2022/01/16 16:23:18;;;;;;;;;;;;;;;3.23;85.12;98101.34;4185468;28;5805;-69
2022/01/16 16:25:20;;;;;;;;;;;;;;;3.26;85.20;98097.66;4185496;28;6527;-69
2022/01/16 16:27:22;;;;;;;;;;;;;;;3.26;85.08;98106.34;4193279;28;5924;-69
2022/01/16 16:29:25;;;;;;;;;;;;;;;3.24;85.10;98105.63;4180573;28;5818;-69
2022/01/16 16:31:27;;;;;;;;;;;;;;;3.27;84.79;98110.63;4185551;28;5813;-68
2022/01/16 16:33:29;;;;;;;;;;;;;;;3.27;85.15;98118.47;4184120;28;6596;-69
2022/01/16 16:35:31;;;;;;;;;;;;;;;3.29;84.82;98126.22;4193453;28;5882;-68
2022/01/16 16:37:32;;;;;;;;;;;;;;;3.27;84.97;98134.13;4179490;28;5765;-68
2022/01/16 16:39:54;;;;;;;;;;;;;;;3.23;84.95;98135.31;4193274;28;6485;-69
2022/01/16 16:42:01;;;;;;;;;;;;;;;3.16;85.32;98141.94;4197629;28;5808;-68
2022/01/16 16:44:04;;;;;;;;;;;;;;;3.10;85.50;98143.25;4187367;28;5661;-68
2022/01/16 16:46:07;;;;;;;;;;;;;;;3.11;85.25;98138.84;4169485;23;6426;-68
2022/01/16 16:48:10;;;;;;;;;;;;;;;3.10;85.49;98139.81;4167761;28;5784;-68
2022/01/16 16:50:14;;;;;;;;;;;;;;;3.11;85.29;98141.47;4190306;28;5853;-69
2022/01/16 16:52:26;;;;;;;;;;;;;;;3.08;85.55;98133.88;4156077;28;5811;-69
2022/01/16 16:54:27;;;;;;;;;;;;;;;3.08;85.52;98132.09;4176848;28;5752;-69
2022/01/16 16:56:29;;;;;;;;;;;;;;;3.08;85.52;98141.72;4180449;28;5851;-69
2022/01/16 16:58:31;;;;;;;;;;;;;;;3.08;85.53;98139.09;4180089;28;5741;-69
2022/01/16 17:00:33;;;;;;;;;;;;;;;3.10;85.37;98147.66;4178125;28;5122;-69
2022/01/16 17:02:35;;;;;;;;;;;;;;;3.11;85.32;98144.09;4179835;28;7723;-69
2022/01/16 17:04:40;;;;;;;;;;;;;;;3.12;85.41;98157.03;4179272;28;6472;-69
2022/01/16 17:06:42;;;;;;;;;;;;;;;3.12;85.32;98158.81;4164718;28;6509;-69
2022/01/16 17:08:44;;;;;;;;;;;;;;;3.13;85.49;98153.47;4176254;28;5809;-69
2022/01/16 17:10:46;;;;;;;;;;;;;;;3.13;85.18;98152.63;4169863;28;5760;-69
2022/01/16 17:12:47;;;;;;;;;;;;;;;3.14;85.14;98159.53;4172438;28;5800;-69
2022/01/16 17:14:49;;;;;;;;;;;;;;;3.16;85.27;98171.53;4144163;28;5802;-68
2022/01/16 17:16:52;;;;;;;;;;;;;;;3.14;85.03;98165.59;4181979;28;5920;-69
2022/01/16 17:18:55;;;;;;;;;;;;;;;3.11;84.94;98170.22;4156033;28;5903;-69
2022/01/16 17:20:57;;;;;;;;;;;;;;;3.17;85.09;98167.13;4182481;28;5883;-69
2022/01/16 17:22:59;;;;;;;;;;;;;;;3.19;84.84;98165.25;4183266;28;6471;-69
2022/01/16 17:25:05;;;;;;;;;;;;;;;3.17;84.76;98160.16;4181592;28;5798;-69
2022/01/16 17:27:08;;;;;;;;;;;;;;;3.15;84.84;98172.47;4157087;28;5803;-69
2022/01/16 17:29:11;;;;;;;;;;;;;;;3.13;84.60;98169.16;4178802;28;5848;-69
2022/01/16 17:31:12;;;;;;;;;;;;;;;3.03;84.69;98173.38;4181330;28;5752;-68
2022/01/16 17:33:14;;;;;;;;;;;;;;;2.83;85.70;98180.06;4179458;28;6672;-68
2022/01/16 17:35:16;;;;;;;;;;;;;;;2.84;85.91;98186.97;4181787;28;5773;-68
2022/01/16 17:37:18;;;;;;;;;;;;;;;2.70;86.94;98183.66;4182078;28;5761;-68
2022/01/16 17:39:21;;;;;;;;;;;;;;;2.63;88.33;98186.72;4182509;28;5780;-68
2022/01/16 17:41:25;;;;;;;;;;;;;;;2.53;89.38;98190.09;4183972;28;5800;-68
2022/01/16 17:43:26;;;;;;;;;;;;;;;2.52;89.58;98201.47;4181677;28;6508;-69
2022/01/16 17:45:28;;;;;;;;;;;;;;;2.52;90.04;98202.31;4180012;28;5748;-73
2022/01/16 17:47:35;;;;;;;;;;;;;;;2.73;88.36;98197.34;4172107;28;5761;-73
2022/01/16 17:49:37;;;;;;;;;;;;;;;2.75;88.46;98205.91;4178267;28;5903;-72
2022/01/16 17:51:38;;;;;;;;;;;;;;;2.60;89.04;98204.34;4174311;28;5765;-72
2022/01/16 17:53:42;;;;;;;;;;;;;;;2.83;87.83;98205.31;4181366;28;5815;-72
2022/01/16 17:55:44;;;;;;;;;;;;;;;2.90;87.29;98194.34;4183922;28;5760;-72
2022/01/16 17:57:47;;;;;;;;;;;;;;;2.92;87.15;98196.84;4178271;28;5798;-72
2022/01/16 17:59:49;;;;;;;;;;;;;;;2.84;86.97;98200.03;4172902;28;5790;-70
2022/01/16 18:01:51;;;;;;;;;;;;;;;2.72;86.10;98203.53;4183047;28;5906;-69
2022/01/16 18:03:52;;;;;;;;;;;;;;;2.65;86.68;98212.72;4163601;28;5776;-72
2022/01/16 18:05:56;;;;;;;;;;;;;;;2.69;85.85;98210.72;4180231;28;5653;-72
2022/01/16 18:07:57;;;;;;;;;;;;;;;2.75;85.84;98216.34;4165510;28;5147;-73
2022/01/16 18:09:59;;;;;;;;;;;;;;;2.78;85.23;98229.19;4165333;28;5127;-73
2022/01/16 18:12:00;;;;;;;;;;;;;;;2.97;85.29;98214.81;4180835;28;6060;-72
2022/01/16 18:14:03;;;;;;;;;;;;;;;3.03;84.83;98222.19;4181338;28;7303;-70
2022/01/16 18:16:05;;;;;;;;;;;;;;;3.03;84.63;98235.25;4174680;28;5767;-71
2022/01/16 18:18:06;;;;;;;;;;;;;;;3.03;84.93;98241.31;4178277;28;5750;-72
2022/01/16 18:20:08;;;;;;;;;;;;;;;3.02;85.23;98244.03;4183931;28;5766;-70
2022/01/16 18:22:12;;;;;;;;;;;;;;;3.07;85.26;98247.16;4177355;28;5761;-70
2022/01/16 18:24:16;;;;;;;;;;;;;;;3.02;85.08;98244.88;4162058;28;5780;-70
2022/01/16 18:26:18;;;;;;;;;;;;;;;2.90;85.30;98246.59;4179158;28;5872;-70
2022/01/16 18:28:41;;;;;;;;;;;;;;;2.79;85.68;98259.56;4180090;28;5098;-70
2022/01/16 18:30:43;;;;;;;;;;;;;;;2.67;86.31;98251.78;4180791;28;6517;-70
2022/01/16 18:32:45;;;;;;;;;;;;;;;2.79;86.13;98259.56;4179564;28;5869;-71
2022/01/16 18:34:47;;;;;;;;;;;;;;;2.93;85.53;98269.88;4182929;28;5749;-73
2022/01/16 18:36:51;;;;;;;;;;;;;;;3.06;85.27;98266.38;4175451;28;5900;-71
2022/01/16 18:38:53;;;;;;;;;;;;;;;3.10;85.60;98267.84;4179602;28;6293;-71
2022/01/16 18:40:54;;;;;;;;;;;;;;;3.11;85.63;98266.88;4182786;28;5836;-70
2022/01/16 18:42:56;;;;;;;;;;;;;;;3.13;85.37;98263.22;4172139;28;5187;-71
2022/01/16 18:45:05;;;;;;;;;;;;;;;3.12;85.61;98273.78;4181323;28;7723;-71
2022/01/16 18:47:07;;;;;;;;;;;;;;;3.04;86.40;98278.72;4171631;28;5745;-71
2022/01/16 18:49:14;;;;;;;;;;;;;;;3.06;85.73;98284.66;4163454;28;5771;-71
2022/01/16 18:51:19;;;;;;;;;;;;;;;2.97;85.91;98282.72;4179493;28;5854;-71
2022/01/16 18:53:24;;;;;;;;;;;;;;;2.73;86.74;98280.09;4175898;28;5929;-72
2022/01/16 18:55:29;;;;;;;;;;;;;;;2.89;85.93;98286.72;4182993;28;5840;-74
2022/01/16 18:57:33;;;;;;;;;;;;;;;2.90;85.95;98291.00;4184945;28;5770;-72
2022/01/16 18:59:35;;;;;;;;;;;;;;;3.05;85.96;98285.59;4186105;28;5668;-73
2022/01/16 19:01:37;;;;;;;;;;;;;;;3.08;85.45;98288.03;4154297;28;5673;-73
2022/01/16 19:03:42;;;;;;;;;;;;;;;3.07;85.80;98299.41;4182470;28;5646;-72
2022/01/16 19:05:46;;;;;;;;;;;;;;;3.01;85.50;98289.41;4183254;28;5684;-72
2022/01/16 19:07:48;;;;;;;;;;;;;;;3.00;85.55;98292.97;4184942;28;5799;-72
2022/01/16 19:09:49;;;;;;;;;;;;;;;2.95;84.72;98287.25;4153068;28;5684;-72
2022/01/16 19:11:51;;;;;;;;;;;;;;;2.83;84.25;98297.59;4166958;28;7060;-72
2022/01/16 19:13:53;;;;;;;;;;;;;;;2.79;84.62;98301.34;4185226;28;5631;-73
2022/01/16 19:15:55;;;;;;;;;;;;;;;2.83;84.48;98309.81;4181996;28;5837;-72
2022/01/16 19:17:56;;;;;;;;;;;;;;;2.86;84.08;98313.06;4197874;28;5643;-73
2022/01/16 19:19:58;;;;;;;;;;;;;;;2.76;81.75;98304.19;4185503;28;5637;-73
2022/01/16 19:22:00;;;;;;;;;;;;;;;2.55;82.67;98308.28;4182696;28;5884;-73
2022/01/16 19:24:03;;;;;;;;;;;;;;;2.58;83.39;98303.69;4195412;28;6033;-71
2022/01/16 19:26:06;;;;;;;;;;;;;;;2.51;82.67;98307.69;4169610;28;5130;-70
2022/01/16 19:28:09;;;;;;;;;;;;;;;2.55;83.00;98303.06;4183822;28;7746;-71
2022/01/16 19:30:11;;;;;;;;;;;;;;;2.67;82.82;98309.22;4187241;28;5697;-70
2022/01/16 19:32:12;;;;;;;;;;;;;;;2.76;82.69;98313.81;4132701;28;5813;-70
2022/01/16 19:34:14;;;;;;;;;;;;;;;2.64;81.23;98312.88;4172697;28;5860;-73
2022/01/16 19:36:18;;;;;;;;;;;;;;;2.55;82.35;98319.56;4184644;28;5670;-75
2022/01/16 19:38:20;;;;;;;;;;;;;;;2.46;82.95;98319.38;4172499;28;5670;-74
2022/01/16 19:40:22;;;;;;;;;;;;;;;2.45;83.79;98320.31;4186119;28;5853;-76
2022/01/16 19:42:24;;;;;;;;;;;;;;;2.39;84.49;98326.78;4183227;28;5766;-77
2022/01/16 19:44:26;;;;;;;;;;;;;;;2.30;85.59;98324.81;4184491;28;5940;-76
2022/01/16 19:46:29;;;;;;;;;;;;;;;2.19;86.50;98320.31;4185147;28;5675;-76
2022/01/16 19:48:32;;;;;;;;;;;;;;;2.18;86.64;98330.84;4164083;28;5731;-78
2022/01/16 19:50:34;;;;;;;;;;;;;;;2.16;87.54;98323.13;4178837;28;5766;-77
2022/01/16 19:52:36;;;;;;;;;;;;;;;2.19;87.84;98328.16;4181943;28;5776;-74
2022/01/16 19:54:38;;;;;;;;;;;;;;;2.39;86.41;98333.78;4160062;28;5679;-76
2022/01/16 19:56:44;;;;;;;;;;;;;;;2.60;85.43;98330.56;4169720;28;5669;-77
2022/01/16 19:59:06;;;;;;;;;;;;;;;2.72;85.44;98336.69;4169035;28;5665;-77
2022/01/16 20:01:08;;;;;;;;;;;;;;;2.69;85.49;98338.66;4166213;28;5669;-75
2022/01/16 20:03:10;;;;;;;;;;;;;;;2.68;85.52;98343.06;4180496;28;5654;-71
2022/01/16 20:05:12;;;;;;;;;;;;;;;2.62;85.71;98352.16;4185005;28;5826;-72
2022/01/16 20:07:16;;;;;;;;;;;;;;;2.58;85.44;98355.06;4177872;28;5660;-73
2022/01/16 20:09:17;;;;;;;;;;;;;;;2.29;87.42;98357.06;4166743;28;5750;-72
2022/01/16 20:11:25;;;;;;;;;;;;;;;2.34;87.11;98357.56;4194280;28;5635;-72
2022/01/16 20:13:26;;;;;;;;;;;;;;;2.55;85.84;98355.28;4163607;28;5785;-76
2022/01/16 20:15:28;;;;;;;;;;;;;;;2.68;85.31;98356.09;4182281;28;5682;-77
2022/01/16 20:17:30;;;;;;;;;;;;;;;2.76;85.17;98364.25;4160172;28;5809;-76